createdAt,value
2019-04-16T00:00:47.638Z,1018.45
2019-04-16T00:01:47.581Z,1018.43
2019-04-16T00:02:48.551Z,1018.44
2019-04-16T00:03:47.559Z,1018.43
2019-04-16T00:04:47.550Z,1018.41
2019-04-16T00:05:47.540Z,1018.41
2019-04-16T00:06:47.558Z,1018.38
2019-04-16T00:07:47.520Z,1018.37
2019-04-16T00:08:47.505Z,1018.41
2019-04-16T00:09:47.494Z,1018.35
2019-04-16T00:10:47.484Z,1018.34
2019-04-16T00:11:47.501Z,1018.35
2019-04-16T00:12:47.462Z,1018.34
2019-04-16T00:13:47.458Z,1018.34
2019-04-16T00:14:47.442Z,1018.31
2019-04-16T00:15:47.431Z,1018.35
2019-04-16T00:16:47.446Z,1018.30
2019-04-16T00:17:48.124Z,1018.32
2019-04-16T00:18:57.157Z,1018.25
2019-04-16T00:19:48.385Z,1018.25
2019-04-16T00:20:47.379Z,1018.21
2019-04-16T00:21:47.408Z,1018.26
2019-04-16T00:22:47.361Z,1018.19
2019-04-16T00:23:47.345Z,1018.21
2019-04-16T00:24:47.334Z,1018.19
2019-04-16T00:25:47.327Z,1018.21
2019-04-16T00:26:47.315Z,1018.13
2019-04-16T00:27:47.327Z,1018.16
2019-04-16T00:28:47.291Z,1018.12
2019-04-16T00:29:47.283Z,1018.13
2019-04-16T00:30:47.275Z,1018.11
2019-04-16T00:31:47.260Z,1018.07
2019-04-16T00:32:47.279Z,1018.12
2019-04-16T00:33:47.241Z,1018.12
2019-04-16T00:34:47.231Z,1018.08
2019-04-16T00:35:47.283Z,1018.10
2019-04-16T00:36:48.807Z,1018.09
2019-04-16T00:37:51.463Z,1018.08
2019-04-16T00:38:48.189Z,1018.09
2019-04-16T00:39:47.177Z,1018.05
2019-04-16T00:40:47.163Z,1018.08
2019-04-16T00:41:47.162Z,1018.04
2019-04-16T00:42:47.147Z,1018.07
2019-04-16T00:43:47.171Z,1018.05
2019-04-16T00:44:47.121Z,1018.04
2019-04-16T00:45:47.111Z,1017.99
2019-04-16T00:46:47.101Z,1018.01
2019-04-16T00:47:48.051Z,1018.02
2019-04-16T00:48:47.078Z,1018.03
2019-04-16T00:49:47.108Z,1017.97
2019-04-16T00:50:47.056Z,1017.99
2019-04-16T00:51:47.046Z,1018.00
2019-04-16T00:52:47.039Z,1017.97
2019-04-16T00:53:47.025Z,1017.98
2019-04-16T00:54:47.013Z,1017.95
2019-04-16T00:55:47.039Z,1017.98
2019-04-16T00:56:47.556Z,1017.98
2019-04-16T00:57:48.626Z,1017.97
2019-04-16T00:58:49.339Z,1017.99
2019-04-16T00:59:47.973Z,1017.98
2019-04-16T01:00:46.951Z,1017.96
2019-04-16T01:01:46.973Z,1017.96
2019-04-16T01:02:47.172Z,1017.99
2019-04-16T01:03:46.916Z,1018.00
2019-04-16T01:04:46.906Z,1018.00
2019-04-16T01:05:46.894Z,1018.00
2019-04-16T01:06:46.884Z,1018.01
2019-04-16T01:07:46.897Z,1017.97
2019-04-16T01:08:54.473Z,1017.95
2019-04-16T01:09:47.855Z,1017.95
2019-04-16T01:10:46.842Z,1017.96
2019-04-16T01:11:49.028Z,1017.95
2019-04-16T01:12:46.855Z,1017.91
2019-04-16T01:13:46.807Z,1017.90
2019-04-16T01:14:46.799Z,1017.92
2019-04-16T01:15:46.791Z,1017.87
2019-04-16T01:16:46.775Z,1017.88
2019-04-16T01:17:46.764Z,1017.92
2019-04-16T01:18:46.790Z,1017.90
2019-04-16T01:19:46.744Z,1017.91
2019-04-16T01:20:46.740Z,1017.87
2019-04-16T01:21:46.719Z,1017.86
2019-04-16T01:22:47.476Z,1017.88
2019-04-16T01:23:49.315Z,1017.91
2019-04-16T01:24:51.565Z,1017.89
2019-04-16T01:25:47.679Z,1017.90
2019-04-16T01:26:46.670Z,1017.88
2019-04-16T01:27:46.656Z,1017.88
2019-04-16T01:28:46.645Z,1017.89
2019-04-16T01:29:46.670Z,1017.87
2019-04-16T01:30:46.623Z,1017.88
2019-04-16T01:31:46.615Z,1017.88
2019-04-16T01:32:46.601Z,1017.89
2019-04-16T01:33:47.394Z,1017.84
2019-04-16T01:34:48.344Z,1017.86
2019-04-16T01:35:51.082Z,1017.84
2019-04-16T01:36:46.559Z,1017.80
2019-04-16T01:37:46.551Z,1017.79
2019-04-16T01:38:46.538Z,1017.80
2019-04-16T01:39:47.774Z,1017.86
2019-04-16T01:40:47.319Z,1017.81
2019-04-16T01:41:46.505Z,1017.78
2019-04-16T01:42:46.492Z,1017.79
2019-04-16T01:43:46.491Z,1017.78
2019-04-16T01:44:46.472Z,1017.83
2019-04-16T01:45:46.508Z,1017.80
2019-04-16T01:46:46.449Z,1017.77
2019-04-16T01:47:46.442Z,1017.81
2019-04-16T01:48:46.427Z,1017.79
2019-04-16T01:49:46.417Z,1017.81
2019-04-16T01:50:46.406Z,1017.81
2019-04-16T01:51:47.578Z,1017.82
2019-04-16T01:52:49.438Z,1017.80
2019-04-16T01:53:46.371Z,1017.88
2019-04-16T01:54:46.363Z,1017.78
2019-04-16T01:55:46.351Z,1017.84
2019-04-16T01:56:46.340Z,1017.79
2019-04-16T01:57:46.369Z,1017.79
2019-04-16T01:58:46.319Z,1017.79
2019-04-16T01:59:46.307Z,1017.84
2019-04-16T02:00:46.299Z,1017.86
2019-04-16T02:01:46.287Z,1017.84
2019-04-16T02:02:47.042Z,1017.82
2019-04-16T02:03:48.915Z,1017.84
2019-04-16T02:04:48.518Z,1017.86
2019-04-16T02:05:47.241Z,1017.87
2019-04-16T02:06:46.244Z,1017.83
2019-04-16T02:07:46.220Z,1017.86
2019-04-16T02:08:46.253Z,1017.82
2019-04-16T02:09:46.204Z,1017.86
2019-04-16T02:10:46.188Z,1017.88
2019-04-16T02:11:46.176Z,1017.81
2019-04-16T02:12:46.172Z,1017.84
2019-04-16T02:13:46.931Z,1017.86
2019-04-16T02:14:47.343Z,1017.85
2019-04-16T02:15:46.139Z,1017.90
2019-04-16T02:16:46.121Z,1017.84
2019-04-16T02:17:46.113Z,1017.85
2019-04-16T02:18:46.122Z,1017.85
2019-04-16T02:19:46.091Z,1017.83
2019-04-16T02:20:46.108Z,1017.85
2019-04-16T02:21:46.069Z,1017.83
2019-04-16T02:22:46.057Z,1017.85
2019-04-16T02:23:48.100Z,1017.82
2019-04-16T02:24:47.821Z,1017.79
2019-04-16T02:25:48.446Z,1017.84
2019-04-16T02:26:47.012Z,1017.83
2019-04-16T02:27:46.007Z,1017.85
2019-04-16T02:28:45.992Z,1017.86
2019-04-16T02:29:45.988Z,1017.88
2019-04-16T02:30:46.004Z,1017.87
2019-04-16T02:31:48.017Z,1017.88
2019-04-16T02:32:46.947Z,1017.84
2019-04-16T02:33:45.957Z,1017.88
2019-04-16T02:34:45.928Z,1017.92
2019-04-16T02:35:45.917Z,1017.90
2019-04-16T02:36:45.905Z,1017.91
2019-04-16T02:37:45.931Z,1017.94
2019-04-16T02:38:52.487Z,1017.92
2019-04-16T02:39:48.790Z,1017.92
2019-04-16T02:40:51.302Z,1017.92
2019-04-16T02:41:46.850Z,1017.93
2019-04-16T02:42:45.841Z,1017.95
2019-04-16T02:43:45.863Z,1017.92
2019-04-16T02:44:49.854Z,1017.92
2019-04-16T02:45:45.807Z,1017.90
2019-04-16T02:46:45.798Z,1017.88
2019-04-16T02:47:45.790Z,1017.93
2019-04-16T02:48:50.301Z,1017.90
2019-04-16T02:49:46.762Z,1017.88
2019-04-16T02:50:45.754Z,1017.89
2019-04-16T02:51:45.746Z,1017.91
2019-04-16T02:52:50.541Z,1017.89
2019-04-16T02:53:46.757Z,1017.87
2019-04-16T02:54:45.709Z,1017.83
2019-04-16T02:55:45.699Z,1017.87
2019-04-16T02:56:51.684Z,1017.88
2019-04-16T02:57:46.678Z,1017.89
2019-04-16T02:58:45.665Z,1017.87
2019-04-16T02:59:47.213Z,1017.89
2019-04-16T03:00:49.397Z,1017.85
2019-04-16T03:01:45.633Z,1017.86
2019-04-16T03:02:45.636Z,1017.89
2019-04-16T03:03:45.610Z,1017.88
2019-04-16T03:04:45.625Z,1017.83
2019-04-16T03:05:45.593Z,1017.87
2019-04-16T03:06:45.578Z,1017.87
2019-04-16T03:07:45.573Z,1017.86
2019-04-16T03:08:45.556Z,1017.86
2019-04-16T03:09:45.582Z,1017.83
2019-04-16T03:10:45.538Z,1017.86
2019-04-16T03:11:48.381Z,1017.83
2019-04-16T03:12:45.512Z,1017.85
2019-04-16T03:13:45.506Z,1017.85
2019-04-16T03:14:45.492Z,1017.84
2019-04-16T03:15:45.517Z,1017.82
2019-04-16T03:16:45.468Z,1017.83
2019-04-16T03:17:45.463Z,1017.83
2019-04-16T03:18:47.509Z,1017.83
2019-04-16T03:19:45.438Z,1017.84
2019-04-16T03:20:45.424Z,1017.81
2019-04-16T03:21:45.454Z,1017.84
2019-04-16T03:22:45.405Z,1017.80
2019-04-16T03:23:45.392Z,1017.81
2019-04-16T03:24:45.381Z,1017.81
2019-04-16T03:25:45.372Z,1017.80
2019-04-16T03:26:47.553Z,1017.78
2019-04-16T03:27:46.373Z,1017.78
2019-04-16T03:28:45.337Z,1017.80
2019-04-16T03:29:45.327Z,1017.77
2019-04-16T03:30:45.317Z,1017.75
2019-04-16T03:31:45.306Z,1017.77
2019-04-16T03:32:45.333Z,1017.81
2019-04-16T03:33:50.420Z,1017.82
2019-04-16T03:34:46.271Z,1017.82
2019-04-16T03:35:45.262Z,1017.87
2019-04-16T03:36:45.250Z,1017.85
2019-04-16T03:37:45.239Z,1017.86
2019-04-16T03:38:45.270Z,1017.84
2019-04-16T03:39:45.216Z,1017.82
2019-04-16T03:40:45.205Z,1017.84
2019-04-16T03:41:45.194Z,1017.83
2019-04-16T03:42:45.185Z,1017.83
2019-04-16T03:43:45.174Z,1017.85
2019-04-16T03:44:45.188Z,1017.84
2019-04-16T03:45:45.155Z,1017.86
2019-04-16T03:46:46.930Z,1017.86
2019-04-16T03:47:45.129Z,1017.89
2019-04-16T03:48:45.124Z,1017.89
2019-04-16T03:49:45.151Z,1017.90
2019-04-16T03:50:45.098Z,1017.91
2019-04-16T03:51:45.087Z,1017.94
2019-04-16T03:52:45.794Z,1017.94
2019-04-16T03:53:46.517Z,1017.95
2019-04-16T03:54:45.052Z,1017.91
2019-04-16T03:55:45.079Z,1017.92
2019-04-16T03:56:45.031Z,1017.95
2019-04-16T03:57:45.018Z,1017.92
2019-04-16T03:58:45.008Z,1017.90
2019-04-16T03:59:44.999Z,1017.91
2019-04-16T04:00:45.130Z,1017.94
2019-04-16T04:01:46.070Z,1017.94
2019-04-16T04:02:44.965Z,1017.90
2019-04-16T04:03:44.954Z,1017.89
2019-04-16T04:04:44.943Z,1017.90
2019-04-16T04:05:44.931Z,1017.89
2019-04-16T04:06:44.949Z,1017.88
2019-04-16T04:07:45.151Z,1017.88
2019-04-16T04:08:47.950Z,1017.86
2019-04-16T04:09:44.890Z,1017.85
2019-04-16T04:10:44.878Z,1017.83
2019-04-16T04:11:44.909Z,1017.83
2019-04-16T04:12:45.693Z,1017.84
2019-04-16T04:13:49.814Z,1017.87
2019-04-16T04:14:45.832Z,1017.80
2019-04-16T04:15:44.826Z,1017.86
2019-04-16T04:16:44.811Z,1017.84
2019-04-16T04:17:44.823Z,1017.84
2019-04-16T04:18:44.788Z,1017.83
2019-04-16T04:19:46.169Z,1017.83
2019-04-16T04:20:49.499Z,1017.81
2019-04-16T04:21:45.765Z,1017.83
2019-04-16T04:22:44.785Z,1017.79
2019-04-16T04:23:44.732Z,1017.81
2019-04-16T04:24:44.721Z,1017.86
2019-04-16T04:25:44.710Z,1017.86
2019-04-16T04:26:44.698Z,1017.90
2019-04-16T04:27:46.686Z,1017.84
2019-04-16T04:28:44.703Z,1017.85
2019-04-16T04:29:46.305Z,1017.86
2019-04-16T04:30:44.656Z,1017.84
2019-04-16T04:31:44.644Z,1017.86
2019-04-16T04:32:47.339Z,1017.87
2019-04-16T04:33:44.652Z,1017.88
2019-04-16T04:34:45.425Z,1017.87
2019-04-16T04:35:44.615Z,1017.87
2019-04-16T04:36:44.590Z,1017.92
2019-04-16T04:37:44.580Z,1017.95
2019-04-16T04:38:44.612Z,1017.93
2019-04-16T04:39:44.845Z,1017.93
2019-04-16T04:40:45.185Z,1017.94
2019-04-16T04:41:45.534Z,1017.93
2019-04-16T04:42:44.525Z,1017.92
2019-04-16T04:43:44.516Z,1017.92
2019-04-16T04:44:46.964Z,1017.93
2019-04-16T04:45:44.504Z,1017.96
2019-04-16T04:46:46.087Z,1017.95
2019-04-16T04:47:44.474Z,1017.97
2019-04-16T04:48:44.459Z,1017.96
2019-04-16T04:49:44.492Z,1018.03
2019-04-16T04:50:44.436Z,1018.01
2019-04-16T04:51:44.424Z,1018.00
2019-04-16T04:52:45.986Z,1018.03
2019-04-16T04:53:44.407Z,1018.03
2019-04-16T04:54:44.392Z,1018.00
2019-04-16T04:55:44.423Z,1018.02
2019-04-16T04:56:44.372Z,1017.99
2019-04-16T04:57:44.359Z,1018.02
2019-04-16T04:58:44.355Z,1018.00
2019-04-16T04:59:44.337Z,1018.05
2019-04-16T05:00:44.327Z,1018.01
2019-04-16T05:01:44.340Z,1018.01
2019-04-16T05:02:44.447Z,1018.00
2019-04-16T05:03:47.134Z,1018.00
2019-04-16T05:04:44.282Z,1018.01
2019-04-16T05:05:44.274Z,1018.00
2019-04-16T05:06:44.298Z,1018.00
2019-04-16T05:07:44.251Z,1018.01
2019-04-16T05:08:44.239Z,1017.99
2019-04-16T05:09:44.229Z,1017.98
2019-04-16T05:10:58.026Z,1018.01
2019-04-16T05:11:48.381Z,1017.94
2019-04-16T05:12:44.196Z,1017.98
2019-04-16T05:13:44.183Z,1017.92
2019-04-16T05:14:44.173Z,1017.92
2019-04-16T05:15:44.166Z,1017.90
2019-04-16T05:16:44.153Z,1017.92
2019-04-16T05:17:44.168Z,1017.94
2019-04-16T05:18:44.127Z,1017.95
2019-04-16T05:19:44.538Z,1017.93
2019-04-16T05:20:46.737Z,1017.92
2019-04-16T05:21:44.099Z,1017.94
2019-04-16T05:22:44.121Z,1017.95
2019-04-16T05:23:44.073Z,1017.97
2019-04-16T05:24:44.061Z,1017.98
2019-04-16T05:25:44.053Z,1018.03
2019-04-16T05:26:44.040Z,1017.97
2019-04-16T05:27:44.031Z,1017.97
2019-04-16T05:28:45.480Z,1017.99
2019-04-16T05:29:48.605Z,1017.99
2019-04-16T05:30:44.997Z,1018.02
2019-04-16T05:31:43.986Z,1018.03
2019-04-16T05:32:43.972Z,1017.96
2019-04-16T05:33:43.964Z,1017.97
2019-04-16T05:34:43.980Z,1018.02
2019-04-16T05:35:43.943Z,1018.01
2019-04-16T05:36:47.880Z,1017.99
2019-04-16T05:37:43.919Z,1018.00
2019-04-16T05:38:43.910Z,1018.01
2019-04-16T05:39:43.924Z,1018.02
2019-04-16T05:40:43.886Z,1018.04
2019-04-16T05:41:43.875Z,1018.01
2019-04-16T05:42:43.865Z,1018.04
2019-04-16T05:43:43.855Z,1018.06
2019-04-16T05:44:43.879Z,1018.08
2019-04-16T05:45:43.832Z,1018.06
2019-04-16T05:46:46.680Z,1018.07
2019-04-16T05:47:48.786Z,1018.02
2019-04-16T05:48:44.798Z,1018.07
2019-04-16T05:49:43.788Z,1018.06
2019-04-16T05:50:43.807Z,1018.07
2019-04-16T05:51:43.779Z,1018.07
2019-04-16T05:52:43.757Z,1018.07
2019-04-16T05:53:43.746Z,1018.10
2019-04-16T05:54:44.315Z,1018.07
2019-04-16T05:55:43.749Z,1018.06
2019-04-16T05:56:43.714Z,1018.09
2019-04-16T05:57:43.701Z,1018.08
2019-04-16T05:58:43.690Z,1018.07
2019-04-16T05:59:43.691Z,1018.03
2019-04-16T06:00:43.695Z,1018.06
2019-04-16T06:01:45.442Z,1018.07
2019-04-16T06:02:43.648Z,1018.09
2019-04-16T06:03:43.638Z,1018.08
2019-04-16T06:04:43.626Z,1018.06
2019-04-16T06:05:43.651Z,1018.10
2019-04-16T06:06:43.602Z,1018.11
2019-04-16T06:07:43.594Z,1018.11
2019-04-16T06:08:43.583Z,1018.09
2019-04-16T06:09:44.468Z,1018.10
2019-04-16T06:10:43.562Z,1018.10
2019-04-16T06:11:43.576Z,1018.13
2019-04-16T06:12:43.541Z,1018.09
2019-04-16T06:13:44.363Z,1018.07
2019-04-16T06:14:43.519Z,1018.06
2019-04-16T06:15:43.507Z,1018.12
2019-04-16T06:16:43.534Z,1018.08
2019-04-16T06:17:43.488Z,1018.08
2019-04-16T06:18:43.476Z,1018.07
2019-04-16T06:19:46.472Z,1018.12
2019-04-16T06:20:43.454Z,1018.14
2019-04-16T06:21:43.442Z,1018.09
2019-04-16T06:22:43.457Z,1018.07
2019-04-16T06:23:43.422Z,1018.06
2019-04-16T06:24:43.411Z,1018.10
2019-04-16T06:25:43.402Z,1018.10
2019-04-16T06:26:44.438Z,1018.08
2019-04-16T06:27:43.416Z,1018.11
2019-04-16T06:28:43.368Z,1018.15
2019-04-16T06:29:43.358Z,1018.05
2019-04-16T06:30:43.345Z,1018.05
2019-04-16T06:31:43.339Z,1018.07
2019-04-16T06:32:43.337Z,1018.07
2019-04-16T06:33:43.340Z,1018.08
2019-04-16T06:34:43.309Z,1018.09
2019-04-16T06:35:43.952Z,1018.05
2019-04-16T06:36:43.281Z,1018.06
2019-04-16T06:37:45.707Z,1018.08
2019-04-16T06:38:43.295Z,1018.03
2019-04-16T06:39:43.248Z,1018.04
2019-04-16T06:40:43.239Z,1018.06
2019-04-16T06:41:47.685Z,1018.08
2019-04-16T06:42:44.214Z,1017.99
2019-04-16T06:43:43.202Z,1018.03
2019-04-16T06:44:43.216Z,1018.04
2019-04-16T06:45:43.181Z,1018.03
2019-04-16T06:46:43.170Z,1018.02
2019-04-16T06:47:43.159Z,1018.03
2019-04-16T06:48:46.052Z,1017.99
2019-04-16T06:49:43.175Z,1018.04
2019-04-16T06:50:43.124Z,1018.07
2019-04-16T06:51:44.548Z,1018.02
2019-04-16T06:52:43.103Z,1018.05
2019-04-16T06:53:43.099Z,1018.05
2019-04-16T06:54:45.469Z,1018.05
2019-04-16T06:55:43.188Z,1018.03
2019-04-16T06:56:43.067Z,1018.01
2019-04-16T06:57:43.839Z,1018.08
2019-04-16T06:58:50.720Z,1018.07
2019-04-16T06:59:44.029Z,1018.06
2019-04-16T07:00:43.071Z,1018.04
2019-04-16T07:01:43.006Z,1018.03
2019-04-16T07:02:46.259Z,1018.02
2019-04-16T07:03:43.985Z,1018.06
2019-04-16T07:04:42.976Z,1018.05
2019-04-16T07:05:42.964Z,1018.01
2019-04-16T07:06:43.940Z,1018.04
2019-04-16T07:07:45.783Z,1018.00
2019-04-16T07:08:42.933Z,1018.00
2019-04-16T07:09:45.687Z,1018.03
2019-04-16T07:10:44.828Z,1017.98
2019-04-16T07:11:53.754Z,1018.00
2019-04-16T07:12:43.902Z,1017.91
2019-04-16T07:13:43.087Z,1017.94
2019-04-16T07:14:45.596Z,1017.98
2019-04-16T07:15:43.858Z,1017.91
2019-04-16T07:16:42.882Z,1018.01
2019-04-16T07:17:42.832Z,1017.93
2019-04-16T07:18:42.819Z,1017.96
2019-04-16T07:19:42.869Z,1017.99
2019-04-16T07:20:45.718Z,1017.98
2019-04-16T07:21:42.787Z,1018.02
2019-04-16T07:22:42.840Z,1017.99
2019-04-16T07:23:45.802Z,1017.93
2019-04-16T07:24:42.843Z,1017.92
2019-04-16T07:25:44.014Z,1017.95
2019-04-16T07:26:46.393Z,1017.93
2019-04-16T07:27:43.768Z,1017.92
2019-04-16T07:28:43.004Z,1017.91
2019-04-16T07:29:46.178Z,1017.96
2019-04-16T07:30:42.790Z,1017.90
2019-04-16T07:31:42.716Z,1017.97
2019-04-16T07:32:42.665Z,1018.00
2019-04-16T07:33:42.691Z,1017.99
2019-04-16T07:34:42.644Z,1017.98
2019-04-16T07:35:42.641Z,1017.97
2019-04-16T07:36:42.625Z,1017.97
2019-04-16T07:37:42.613Z,1017.99
2019-04-16T07:38:42.600Z,1018.04
2019-04-16T07:39:42.744Z,1018.01
2019-04-16T07:40:42.579Z,1017.99
2019-04-16T07:41:43.276Z,1018.00
2019-04-16T07:42:51.777Z,1017.96
2019-04-16T07:43:43.545Z,1017.99
2019-04-16T07:44:42.535Z,1017.96
2019-04-16T07:45:42.566Z,1018.01
2019-04-16T07:46:44.150Z,1018.03
2019-04-16T07:47:42.503Z,1018.00
2019-04-16T07:48:42.492Z,1017.95
2019-04-16T07:49:42.499Z,1017.97
2019-04-16T07:50:42.476Z,1017.99
2019-04-16T07:51:42.490Z,1017.92
2019-04-16T07:52:42.748Z,1017.98
2019-04-16T07:53:47.092Z,1018.00
2019-04-16T07:54:43.427Z,1017.92
2019-04-16T07:55:42.428Z,1018.01
2019-04-16T07:56:42.429Z,1017.98
2019-04-16T07:57:42.392Z,1018.00
2019-04-16T07:58:42.383Z,1018.01
2019-04-16T07:59:42.372Z,1018.00
2019-04-16T08:00:42.358Z,1017.99
2019-04-16T08:01:44.062Z,1018.03
2019-04-16T08:02:43.336Z,1018.02
2019-04-16T08:03:42.326Z,1017.98
2019-04-16T08:04:42.313Z,1017.95
2019-04-16T08:05:42.314Z,1017.99
2019-04-16T08:06:46.324Z,1017.98
2019-04-16T08:07:42.307Z,1017.98
2019-04-16T08:08:42.273Z,1017.98
2019-04-16T08:09:42.263Z,1017.93
2019-04-16T08:10:42.251Z,1017.93
2019-04-16T08:11:42.241Z,1017.98
2019-04-16T08:12:42.404Z,1017.98
2019-04-16T08:13:42.226Z,1017.99
2019-04-16T08:14:42.210Z,1017.99
2019-04-16T08:15:42.201Z,1018.04
2019-04-16T08:16:47.487Z,1017.98
2019-04-16T08:17:43.219Z,1018.02
2019-04-16T08:18:42.164Z,1018.02
2019-04-16T08:19:44.761Z,1017.99
2019-04-16T08:20:43.138Z,1018.00
2019-04-16T08:21:44.257Z,1017.99
2019-04-16T08:22:47.241Z,1018.02
2019-04-16T08:23:43.146Z,1018.05
2019-04-16T08:24:42.099Z,1018.00
2019-04-16T08:25:42.086Z,1018.01
2019-04-16T08:26:45.027Z,1017.98
2019-04-16T08:27:42.064Z,1017.99
2019-04-16T08:28:42.060Z,1018.03
2019-04-16T08:29:42.071Z,1018.00
2019-04-16T08:30:42.034Z,1018.01
2019-04-16T08:31:44.503Z,1018.05
2019-04-16T08:32:42.010Z,1018.02
2019-04-16T08:33:41.998Z,1018.02
2019-04-16T08:34:42.011Z,1017.99
2019-04-16T08:35:41.976Z,1018.00
2019-04-16T08:36:41.967Z,1018.02
2019-04-16T08:37:48.729Z,1018.08
2019-04-16T08:38:42.943Z,1018.09
2019-04-16T08:39:41.969Z,1018.08
2019-04-16T08:40:46.051Z,1018.07
2019-04-16T08:41:41.909Z,1018.04
2019-04-16T08:42:44.847Z,1018.01
2019-04-16T08:43:41.894Z,1018.06
2019-04-16T08:44:41.877Z,1018.08
2019-04-16T08:45:41.894Z,1018.06
2019-04-16T08:46:41.859Z,1018.05
2019-04-16T08:47:44.842Z,1018.10
2019-04-16T08:48:41.835Z,1018.08
2019-04-16T08:49:41.825Z,1018.09
2019-04-16T08:50:41.852Z,1018.07
2019-04-16T08:51:41.803Z,1018.08
2019-04-16T08:52:42.619Z,1018.01
2019-04-16T08:53:43.787Z,1018.05
2019-04-16T08:54:41.770Z,1018.07
2019-04-16T08:55:41.902Z,1018.04
2019-04-16T08:56:43.316Z,1018.04
2019-04-16T08:57:41.738Z,1018.05
2019-04-16T08:58:41.724Z,1018.00
2019-04-16T08:59:42.633Z,1017.94
2019-04-16T09:00:45.990Z,1017.88
2019-04-16T09:01:41.716Z,1017.95
2019-04-16T09:02:41.677Z,1017.95
2019-04-16T09:03:41.669Z,1018.00
2019-04-16T09:04:41.658Z,1017.93
2019-04-16T09:05:42.124Z,1017.95
2019-04-16T09:06:42.650Z,1018.00
2019-04-16T09:07:41.623Z,1017.93
2019-04-16T09:08:41.615Z,1017.95
2019-04-16T09:09:41.602Z,1017.96
2019-04-16T09:10:44.519Z,1017.93
2019-04-16T09:11:41.582Z,1017.90
2019-04-16T09:12:45.847Z,1017.93
2019-04-16T09:13:44.452Z,1017.80
2019-04-16T09:14:41.554Z,1017.96
2019-04-16T09:15:41.534Z,1017.89
2019-04-16T09:16:43.594Z,1017.94
2019-04-16T09:17:41.539Z,1017.96
2019-04-16T09:18:41.503Z,1017.92
2019-04-16T09:19:41.490Z,1017.91
2019-04-16T09:20:41.481Z,1017.92
2019-04-16T09:21:44.152Z,1017.90
2019-04-16T09:22:48.864Z,1017.84
2019-04-16T09:23:42.448Z,1017.85
2019-04-16T09:24:41.719Z,1017.84
2019-04-16T09:25:42.538Z,1017.90
2019-04-16T09:26:43.831Z,1017.87
2019-04-16T09:27:41.444Z,1017.85
2019-04-16T09:28:41.394Z,1017.83
2019-04-16T09:29:41.389Z,1017.84
2019-04-16T09:30:41.373Z,1017.86
2019-04-16T09:31:41.365Z,1017.86
2019-04-16T09:32:41.352Z,1017.87
2019-04-16T09:33:41.373Z,1017.89
2019-04-16T09:34:41.330Z,1017.86
2019-04-16T09:35:41.317Z,1017.84
2019-04-16T09:36:41.307Z,1017.89
2019-04-16T09:37:41.300Z,1017.83
2019-04-16T09:38:45.191Z,1017.83
2019-04-16T09:39:41.274Z,1017.83
2019-04-16T09:40:41.263Z,1017.83
2019-04-16T09:41:41.252Z,1017.87
2019-04-16T09:42:41.241Z,1017.85
2019-04-16T09:43:41.231Z,1017.81
2019-04-16T09:44:41.243Z,1017.91
2019-04-16T09:45:41.212Z,1017.83
2019-04-16T09:46:53.580Z,1017.82
2019-04-16T09:47:42.187Z,1017.87
2019-04-16T09:48:41.175Z,1017.81
2019-04-16T09:49:41.199Z,1017.78
2019-04-16T09:50:46.540Z,1017.79
2019-04-16T09:51:42.138Z,1017.84
2019-04-16T09:52:41.130Z,1017.89
2019-04-16T09:53:41.119Z,1017.89
2019-04-16T09:54:41.523Z,1017.92
2019-04-16T09:55:41.121Z,1017.95
2019-04-16T09:56:41.084Z,1017.94
2019-04-16T09:57:41.075Z,1017.89
2019-04-16T09:58:42.671Z,1017.87
2019-04-16T09:59:41.055Z,1017.86
2019-04-16T10:00:41.087Z,1017.89
2019-04-16T10:01:41.032Z,1017.87
2019-04-16T10:02:41.019Z,1017.87
2019-04-16T10:03:41.014Z,1017.89
2019-04-16T10:04:40.998Z,1017.90
2019-04-16T10:05:41.025Z,1017.91
2019-04-16T10:06:40.979Z,1018.03
2019-04-16T10:07:41.149Z,1017.93
2019-04-16T10:08:44.542Z,1017.98
2019-04-16T10:09:40.972Z,1017.99
2019-04-16T10:10:40.945Z,1017.97
2019-04-16T10:11:40.947Z,1017.97
2019-04-16T10:12:40.909Z,1017.91
2019-04-16T10:13:40.903Z,1017.83
2019-04-16T10:14:40.931Z,1017.89
2019-04-16T10:15:40.880Z,1017.84
2019-04-16T10:16:40.925Z,1017.81
2019-04-16T10:17:40.880Z,1017.81
2019-04-16T10:18:40.868Z,1017.84
2019-04-16T10:19:43.272Z,1017.80
2019-04-16T10:20:40.823Z,1017.79
2019-04-16T10:21:40.857Z,1017.82
2019-04-16T10:22:40.806Z,1017.77
2019-04-16T10:23:40.795Z,1017.82
2019-04-16T10:24:40.779Z,1017.74
2019-04-16T10:25:40.769Z,1017.81
2019-04-16T10:26:40.779Z,1017.81
2019-04-16T10:27:40.793Z,1017.77
2019-04-16T10:28:40.739Z,1017.75
2019-04-16T10:29:40.725Z,1017.69
2019-04-16T10:30:40.742Z,1017.70
2019-04-16T10:31:40.704Z,1017.68
2019-04-16T10:32:40.749Z,1017.69
2019-04-16T10:33:40.683Z,1017.68
2019-04-16T10:34:40.675Z,1017.63
2019-04-16T10:35:40.670Z,1017.69
2019-04-16T10:36:40.653Z,1017.67
2019-04-16T10:37:40.649Z,1017.69
2019-04-16T10:38:40.658Z,1017.68
2019-04-16T10:39:40.641Z,1017.70
2019-04-16T10:40:40.609Z,1017.68
2019-04-16T10:41:40.627Z,1017.68
2019-04-16T10:42:40.617Z,1017.67
2019-04-16T10:43:44.746Z,1017.61
2019-04-16T10:44:40.563Z,1017.63
2019-04-16T10:45:40.572Z,1017.66
2019-04-16T10:46:40.569Z,1017.61
2019-04-16T10:47:40.542Z,1017.63
2019-04-16T10:48:40.582Z,1017.62
2019-04-16T10:49:40.536Z,1017.62
2019-04-16T10:50:40.496Z,1017.62
2019-04-16T10:51:40.492Z,1017.62
2019-04-16T10:52:40.473Z,1017.58
2019-04-16T10:53:40.463Z,1017.69
2019-04-16T10:54:40.504Z,1017.70
2019-04-16T10:55:40.449Z,1017.66
2019-04-16T10:56:40.428Z,1017.63
2019-04-16T10:57:40.444Z,1017.56
2019-04-16T10:58:40.426Z,1017.46
2019-04-16T10:59:40.420Z,1017.48
2019-04-16T11:00:40.421Z,1017.48
2019-04-16T11:01:40.373Z,1017.56
2019-04-16T11:02:40.390Z,1017.52
2019-04-16T11:03:40.370Z,1017.43
2019-04-16T11:04:43.057Z,1017.51
2019-04-16T11:05:40.358Z,1017.42
2019-04-16T11:06:40.404Z,1017.46
2019-04-16T11:07:40.347Z,1017.47
2019-04-16T11:08:40.314Z,1017.41
2019-04-16T11:09:40.304Z,1017.44
2019-04-16T11:10:40.331Z,1017.46
2019-04-16T11:11:40.266Z,1017.44
2019-04-16T11:12:40.393Z,1017.48
2019-04-16T11:13:40.244Z,1017.59
2019-04-16T11:14:40.232Z,1017.58
2019-04-16T11:15:40.270Z,1017.52
2019-04-16T11:16:40.235Z,1017.57
2019-04-16T11:17:40.201Z,1017.65
2019-04-16T11:18:40.224Z,1017.59
2019-04-16T11:19:40.208Z,1017.53
2019-04-16T11:20:40.186Z,1017.56
2019-04-16T11:21:40.186Z,1017.56
2019-04-16T11:22:40.160Z,1017.52
2019-04-16T11:23:40.167Z,1017.56
2019-04-16T11:24:40.121Z,1017.46
2019-04-16T11:25:40.111Z,1017.50
2019-04-16T11:26:40.137Z,1017.51
2019-04-16T11:27:40.090Z,1017.50
2019-04-16T11:28:40.104Z,1017.55
2019-04-16T11:29:42.091Z,1017.44
2019-04-16T11:30:40.141Z,1017.40
2019-04-16T11:31:40.044Z,1017.39
2019-04-16T11:32:40.324Z,1017.46
2019-04-16T11:33:40.060Z,1017.44
2019-04-16T11:34:40.042Z,1017.47
2019-04-16T11:35:40.006Z,1017.55
2019-04-16T11:36:39.992Z,1017.49
2019-04-16T11:37:43.711Z,1017.49
2019-04-16T11:38:40.024Z,1017.43
2019-04-16T11:39:39.989Z,1017.48
2019-04-16T11:40:41.252Z,1017.43
2019-04-16T11:41:39.964Z,1017.44
2019-04-16T11:42:39.954Z,1017.48
2019-04-16T11:43:39.977Z,1017.44
2019-04-16T11:44:39.930Z,1017.46
2019-04-16T11:45:39.896Z,1017.47
2019-04-16T11:46:39.887Z,1017.51
2019-04-16T11:47:39.871Z,1017.52
2019-04-16T11:48:39.910Z,1017.59
2019-04-16T11:49:39.877Z,1017.59
2019-04-16T11:50:39.887Z,1017.53
2019-04-16T11:51:39.834Z,1017.58
2019-04-16T11:52:40.123Z,1017.58
2019-04-16T11:53:39.832Z,1017.60
2019-04-16T11:54:39.882Z,1017.57
2019-04-16T11:55:39.786Z,1017.57
2019-04-16T11:56:39.809Z,1017.47
2019-04-16T11:57:39.803Z,1017.50
2019-04-16T11:58:39.793Z,1017.44
2019-04-16T11:59:39.778Z,1017.53
2019-04-16T12:00:39.748Z,1017.47
2019-04-16T12:01:39.721Z,1017.45
2019-04-16T12:02:39.719Z,1017.51
2019-04-16T12:03:39.711Z,1017.49
2019-04-16T12:04:39.725Z,1017.61
2019-04-16T12:05:39.743Z,1017.53